Time;durP1;ratioP1;P1;durP2;ratioP2;P2;SDS_P1;SDS_P2;PMS_P1;PMS_P2;Temp;Humidity;BMP_temperature;BMP_pressure;BME280_temperature;BME280_humidity;BME280_pressure;Samples;Min_cycle;Max_cycle;Signal;HPM_P1;HPM_P2
2022/08/21 00:00:00;;;;;;;26.05;6.22;;;;;;;22.62;100.00;99360.81;1722822;81;20429;-59
2022/08/21 00:02:27;;;;;;;23.98;6.72;;;;;;;22.60;100.00;99358.75;1688401;83;21563;-59
2022/08/21 00:04:54;;;;;;;32.53;6.75;;;;;;;22.61;100.00;99367.66;1719759;81;21525;-60
2022/08/21 00:07:21;;;;;;;25.23;6.55;;;;;;;22.60;100.00;99367.29;1706582;81;22728;-59
2022/08/21 00:09:48;;;;;;;27.27;6.67;;;;;;;22.59;100.00;99359.76;1729540;82;21432;-59
2022/08/21 00:12:14;;;;;;;27.52;5.97;;;;;;;22.59;100.00;99368.30;1686102;83;21498;-60
2022/08/21 00:14:42;;;;;;;28.60;6.42;;;;;;;22.57;100.00;99359.58;1715988;81;21618;-59
2022/08/21 00:17:08;;;;;;;38.40;6.90;;;;;;;22.57;100.00;99367.61;1695348;82;21423;-60
2022/08/21 00:19:35;;;;;;;28.50;6.42;;;;;;;22.57;100.00;99363.09;1727609;81;21846;-60
2022/08/21 00:22:02;;;;;;;26.07;6.22;;;;;;;22.55;100.00;99357.88;1722728;81;21507;-60
2022/08/21 00:24:28;;;;;;;31.83;6.57;;;;;;;22.53;100.00;99364.38;1728229;81;20971;-59
2022/08/21 00:26:55;;;;;;;23.73;6.70;;;;;;;22.53;100.00;99370.58;1688815;82;21773;-59
2022/08/21 00:29:22;;;;;;;31.33;6.65;;;;;;;22.55;100.00;99365.91;1688087;84;21708;-60
2022/08/21 00:31:48;;;;;;;21.48;5.85;;;;;;;22.57;100.00;99368.95;1688758;84;21809;-60
2022/08/21 00:34:15;;;;;;;31.42;6.37;;;;;;;22.60;100.00;99374.83;1713123;81;21495;-60
2022/08/21 00:36:41;;;;;;;25.48;5.62;;;;;;;22.60;100.00;99367.29;1715319;82;21437;-60
2022/08/21 00:39:08;;;;;;;24.40;6.12;;;;;;;22.61;100.00;99367.66;1680344;83;21553;-59
2022/08/21 00:41:36;;;;;;;30.63;6.53;;;;;;;22.58;100.00;99367.44;1717995;81;21522;-60
2022/08/21 00:44:03;;;;;;;;;;;;;;;22.60;100.00;99371.31;1734336;81;22035;-59
2022/08/21 00:46:31;;;;;;;29.57;5.92;;;;;;;22.64;100.00;99367.33;1720718;81;20422;-59
2022/08/21 00:48:58;;;;;;;29.42;5.87;;;;;;;22.61;100.00;99370.33;1672556;84;21454;-60
2022/08/21 00:51:30;;;;;;;31.05;6.45;;;;;;;22.61;100.00;99368.48;1715942;81;21553;-59
2022/08/21 00:53:59;;;;;;;26.50;5.85;;;;;;;22.58;100.00;99363.41;1690045;82;21479;-60
2022/08/21 00:56:26;;;;;;;37.55;6.25;;;;;;;22.61;100.00;99364.98;1720669;81;21475;-60
2022/08/21 00:58:52;;;;;;;32.63;6.57;;;;;;;22.63;100.00;99371.02;1710626;82;21605;-60
2022/08/21 01:01:19;;;;;;;27.47;6.60;;;;;;;22.65;100.00;99374.39;1685124;84;21001;-60
2022/08/21 01:03:46;;;;;;;22.22;6.47;;;;;;;22.65;100.00;99374.39;1729921;81;21939;-60
2022/08/21 01:06:13;;;;;;;34.53;6.27;;;;;;;22.64;100.00;99374.90;1685585;84;21615;-59
2022/08/21 01:08:39;;;;;;;25.15;6.87;;;;;;;22.65;100.00;99373.89;1721408;81;22124;-60
2022/08/21 01:11:06;;;;;;;28.97;6.63;;;;;;;22.64;100.00;99371.35;1707298;81;21068;-60
2022/08/21 01:13:36;;;;;;;28.20;6.30;;;;;;;22.68;100.00;99376.28;1725610;82;21466;-60
2022/08/21 01:16:04;;;;;;;22.45;5.80;;;;;;;22.69;100.00;99377.11;1729637;81;21570;-60
2022/08/21 01:18:32;;;;;;;29.20;6.15;;;;;;;22.75;100.00;99375.16;1724677;81;21435;-60
2022/08/21 01:21:10;;;;;;;30.20;6.70;;;;;;;22.78;100.00;99376.72;1735528;81;21467;-60
2022/08/21 01:23:38;;;;;;;28.67;7.12;;;;;;;22.77;100.00;99374.52;1722480;82;21498;-59
2022/08/21 01:26:05;;;;;;;24.87;5.78;;;;;;;22.80;100.00;99375.56;1730012;81;21487;-59
2022/08/21 01:28:36;;;;;;;31.13;6.33;;;;;;;22.81;100.00;99372.38;1735290;81;21553;-59
2022/08/21 01:31:02;;;;;;;22.80;5.60;;;;;;;22.86;100.00;99373.61;1719637;81;21404;-60
2022/08/21 01:33:29;;;;;;;23.38;5.70;;;;;;;22.86;100.00;99372.27;1705891;82;21830;-60
2022/08/21 01:35:56;;;;;;;23.83;6.08;;;;;;;22.93;100.00;99375.20;1690837;83;21509;-59
2022/08/21 01:38:22;;;;;;;25.72;6.30;;;;;;;22.96;100.00;99372.70;1733202;81;21569;-61
2022/08/21 01:40:49;;;;;;;27.00;5.55;;;;;;;22.98;100.00;99369.37;1695564;83;21597;-59
2022/08/21 01:43:16;;;;;;;34.98;6.15;;;;;;;23.00;100.00;99371.41;1732721;82;21538;-59
2022/08/21 01:45:42;;;;;;;29.90;6.92;;;;;;;23.03;100.00;99371.11;1691578;83;22133;-59
2022/08/21 01:48:09;;;;;;;26.50;7.05;;;;;;;23.08;100.00;99370.20;1728039;81;21443;-59
2022/08/21 01:50:35;;;;;;;20.52;5.30;;;;;;;23.06;100.00;99366.83;1724550;81;21574;-59
2022/08/21 01:53:02;;;;;;;17.75;5.60;;;;;;;23.09;100.00;99359.80;1729573;81;21453;-60
2022/08/21 01:55:28;;;;;;;27.67;5.85;;;;;;;;;;1725034;80;21434;-59
2022/08/21 01:57:55;;;;;;;27.15;6.92;;;;;;;23.06;100.00;99358.78;1726037;80;22042;-59
2022/08/21 02:00:25;;;;;;;25.07;5.87;;;;;;;;;;1693289;83;21470;-60
2022/08/21 02:02:52;;;;;;;29.63;6.22;;;;;;;23.08;100.00;99354.95;1734909;82;21494;-59
2022/08/21 02:05:18;;;;;;;20.65;5.90;;;;;;;23.08;100.00;99356.80;1718621;81;21494;-59
2022/08/21 02:07:49;;;;;;;27.20;5.72;;;;;;;23.04;100.00;99352.73;1724624;81;21530;-59
2022/08/21 02:10:20;;;;;;;25.12;6.08;;;;;;;23.12;100.00;99352.30;1694709;82;21520;-59
2022/08/21 02:12:47;;;;;;;23.73;5.58;;;;;;;23.11;100.00;99347.08;1688450;81;21070;-59
2022/08/21 02:15:14;;;;;;;34.08;6.35;;;;;;;23.03;100.00;99354.55;1690774;83;21600;-60
2022/08/21 02:17:45;;;;;;;30.48;5.78;;;;;;;23.03;100.00;99349.66;1715166;81;21431;-60
2022/08/21 02:20:19;;;;;;;24.10;5.90;;;;;;;23.03;100.00;99342.48;1678422;84;21479;-59
2022/08/21 02:22:46;;;;;;;18.40;5.47;;;;;;;23.00;100.00;99346.80;1720871;82;22162;-59
2022/08/21 02:25:14;;;;;;;26.00;6.05;;;;;;;22.98;100.00;99352.81;1686726;82;21208;-59
2022/08/21 02:27:42;;;;;;;32.03;6.15;;;;;;;22.98;100.00;99347.45;1723905;81;21460;-59
2022/08/21 02:30:12;;;;;;;29.10;6.58;;;;;;;22.96;100.00;99344.05;1680819;82;21450;-59
2022/08/21 02:32:40;;;;;;;26.60;5.50;;;;;;;22.96;100.00;99340.54;1688680;84;21422;-59
2022/08/21 02:35:08;;;;;;;21.33;6.27;;;;;;;22.93;100.00;99334.49;1722133;81;21487;-59
2022/08/21 02:37:55;;;;;;;27.07;6.58;;;;;;;22.93;100.00;99332.31;1720054;81;21667;-60
2022/08/21 02:40:26;;;;;;;;;;;;;;;22.92;100.00;99329.28;1711775;81;21637;-59
2022/08/21 02:42:52;;;;;;;25.72;5.80;;;;;;;22.96;100.00;99329.81;1730611;80;20239;-59
2022/08/21 02:45:20;;;;;;;21.87;5.05;;;;;;;22.90;100.00;99330.77;1730893;80;21089;-59
2022/08/21 02:47:50;;;;;;;25.05;6.15;;;;;;;22.92;100.00;99330.14;1677993;84;21854;-62
2022/08/21 02:50:27;;;;;;;25.00;5.95;;;;;;;22.91;100.00;99328.44;1715664;81;21671;-59
2022/08/21 02:52:54;;;;;;;23.83;5.95;;;;;;;22.90;100.00;99336.13;1691963;83;21585;-59
2022/08/21 02:55:22;;;;;;;24.82;6.08;;;;;;;22.92;100.00;99341.34;1691712;83;21550;-59
2022/08/21 02:57:48;;;;;;;21.82;5.92;;;;;;;22.93;100.00;99335.83;1718260;80;21565;-60
2022/08/21 03:00:16;;;;;;;27.80;6.17;;;;;;;22.92;100.00;99342.20;1729986;80;22112;-60
2022/08/21 03:02:46;;;;;;;27.02;6.12;;;;;;;22.91;100.00;99345.87;1725148;81;21700;-60
2022/08/21 03:05:11;;;;;;;22.70;6.78;;;;;;;22.85;100.00;99353.66;1717150;81;21453;-59
2022/08/21 03:07:39;;;;;;;28.30;7.55;;;;;;;22.86;100.00;99355.36;1712988;81;21427;-60
2022/08/21 03:10:07;;;;;;;23.83;6.25;;;;;;;22.92;100.00;99360.10;1686328;83;21554;-60
2022/08/21 03:12:35;;;;;;;20.72;5.62;;;;;;;22.93;100.00;99362.64;1697448;83;21816;-61
2022/08/21 03:15:05;;;;;;;19.42;5.70;;;;;;;22.91;100.00;99357.09;1687914;83;21557;-60
2022/08/21 03:17:32;;;;;;;23.52;5.70;;;;;;;22.89;100.00;99354.56;1726465;80;21404;-60
2022/08/21 03:19:59;;;;;;;30.00;6.00;;;;;;;22.84;100.00;99354.16;1734946;80;21057;-61
2022/08/21 03:22:27;;;;;;;24.63;5.28;;;;;;;22.79;100.00;99350.25;1690342;83;20961;-60
2022/08/21 03:24:53;;;;;;;23.38;5.42;;;;;;;22.75;100.00;99345.69;1738276;80;21919;-60
2022/08/21 03:27:20;;;;;;;25.12;6.50;;;;;;;22.71;100.00;99346.98;1693649;83;21139;-60
2022/08/21 03:29:46;;;;;;;30.62;6.22;;;;;;;22.69;100.00;99353.00;1692045;83;21581;-60
2022/08/21 03:32:13;;;;;;;23.12;5.90;;;;;;;22.68;100.00;99355.34;1726022;80;21537;-60
2022/08/21 03:34:39;;;;;;;23.27;5.20;;;;;;;22.63;100.00;99356.29;1685766;83;21461;-60
2022/08/21 03:37:07;;;;;;;34.65;6.40;;;;;;;22.58;100.00;99364.76;1735886;80;21737;-60
2022/08/21 03:39:34;;;;;;;21.57;5.37;;;;;;;22.55;100.00;99365.91;1729428;80;21520;-60
2022/08/21 03:42:00;;;;;;;27.55;5.65;;;;;;;22.57;100.00;99364.42;1734749;80;21566;-60
2022/08/21 03:44:28;;;;;;;25.70;6.05;;;;;;;22.54;100.00;99368.73;1731252;80;21447;-60
2022/08/21 03:46:56;;;;;;;18.30;5.55;;;;;;;22.51;100.00;99371.22;1723306;80;21553;-60
2022/08/21 03:49:23;;;;;;;;;;;;;;;22.50;100.00;99377.56;1687184;82;21776;-60
2022/08/21 03:51:49;;;;;;;24.87;5.53;;;;;;;22.50;100.00;99372.20;1677684;84;20438;-60
2022/08/21 03:54:16;;;;;;;19.30;5.40;;;;;;;22.51;100.00;99366.38;1687081;83;21569;-60
2022/08/21 03:56:43;;;;;;;23.95;6.22;;;;;;;22.48;100.00;99365.31;1687230;81;21430;-61
2022/08/21 03:59:10;;;;;;;22.60;5.40;;;;;;;22.49;100.00;99368.33;1686726;83;21422;-60
2022/08/21 04:01:36;;;;;;;20.68;5.53;;;;;;;22.50;100.00;99366.84;1725927;80;21883;-60
2022/08/21 04:04:04;;;;;;;22.45;6.80;;;;;;;22.51;100.00;99371.73;1692154;83;21440;-60
2022/08/21 04:06:30;;;;;;;23.35;5.35;;;;;;;22.54;100.00;99366.89;1724287;80;21526;-60
2022/08/21 04:08:58;;;;;;;21.75;5.75;;;;;;;22.58;100.00;99367.44;1696822;82;21585;-60
2022/08/21 04:11:24;;;;;;;23.85;6.28;;;;;;;22.61;100.00;99369.83;1731851;80;21652;-60
2022/08/21 04:13:51;;;;;;;25.00;6.12;;;;;;;22.69;100.00;99375.77;1727379;81;21796;-60
2022/08/21 04:16:19;;;;;;;24.57;6.05;;;;;;;22.75;100.00;99375.16;1728100;81;21872;-60
2022/08/21 04:18:46;;;;;;;23.42;5.65;;;;;;;22.78;100.00;99382.91;1717301;81;21510;-60
2022/08/21 04:21:13;;;;;;;32.28;5.60;;;;;;;22.76;100.00;99391.61;1722540;81;21432;-60
2022/08/21 04:26:38;;;;;;;21.90;5.80;;;;;;;22.11;100.00;99404.95;1799064;79;23151;-59
2022/08/21 04:29:06;;;;;;;25.48;6.40;;;;;;;22.51;100.00;99389.14;1767938;80;20990;-59
2022/08/21 04:31:36;;;;;;;17.75;5.42;;;;;;;22.51;100.00;99389.14;1763619;80;21530;-60
2022/08/21 04:34:04;;;;;;;31.60;5.92;;;;;;;22.35;100.00;99381.72;1760917;80;21514;-60
2022/08/21 04:36:33;;;;;;;21.95;6.05;;;;;;;22.27;100.00;99389.16;1766759;80;21461;-59
2022/08/21 04:39:00;;;;;;;25.43;5.33;;;;;;;22.21;100.00;99388.38;1745283;80;21572;-59
2022/08/21 04:41:26;;;;;;;28.32;6.03;;;;;;;22.26;100.00;99383.44;1765092;80;21462;-59
2022/08/21 04:43:54;;;;;;;27.40;6.05;;;;;;;22.30;100.00;99387.53;1759731;80;21778;-62
2022/08/21 04:46:22;;;;;;;20.32;6.47;;;;;;;22.35;100.00;99387.91;1756798;80;21545;-60
2022/08/21 04:48:49;;;;;;;32.67;6.40;;;;;;;22.44;100.00;99390.72;1752608;80;21521;-60
2022/08/21 04:51:19;;;;;;;23.77;5.35;;;;;;;22.52;100.00;99386.80;1763869;80;21485;-59
2022/08/21 04:54:00;;;;;;;29.00;5.65;;;;;;;22.60;100.00;99384.70;1758543;80;21446;-60
2022/08/21 04:56:45;;;;;;;24.35;5.55;;;;;;;22.67;100.00;99382.62;1750699;80;22006;-60
2022/08/21 04:59:29;;;;;;;28.38;5.72;;;;;;;22.71;100.00;99381.83;1764803;80;21548;-59
2022/08/21 05:01:56;;;;;;;25.97;5.75;;;;;;;22.73;100.00;99379.36;1774190;80;21565;-60
2022/08/21 05:04:26;;;;;;;24.13;4.80;;;;;;;22.76;100.00;99376.86;1753056;80;21490;-61
2022/08/21 05:06:54;;;;;;;34.67;5.97;;;;;;;22.80;100.00;99382.77;1761193;80;21545;-60
2022/08/21 05:09:21;;;;;;;35.85;6.90;;;;;;;22.81;100.00;99375.92;1763037;80;21806;-60
2022/08/21 05:11:48;;;;;;;30.27;5.10;;;;;;;22.87;100.00;99369.95;1759259;80;21478;-60
2022/08/21 05:14:15;;;;;;;32.17;5.90;;;;;;;22.88;100.00;99373.47;1751803;80;21444;-60
2022/08/21 05:16:43;;;;;;;25.73;5.50;;;;;;;22.99;100.00;99371.08;1760838;80;21518;-62
2022/08/21 05:19:10;;;;;;;;;;;;;;;23.05;100.00;99375.85;1754545;80;21601;-60
2022/08/21 05:21:40;;;;;;;26.77;5.58;;;;;;;23.09;100.00;99368.70;1764763;80;21788;-60
2022/08/21 05:24:06;;;;;;;23.18;5.50;;;;;;;23.15;100.00;99371.75;1764217;80;20985;-60
2022/08/21 05:26:33;;;;;;;28.25;5.60;;;;;;;23.23;100.00;99370.51;1750044;80;21575;-60
2022/08/21 05:29:00;;;;;;;23.95;4.83;;;;;;;23.28;100.00;99369.05;1751458;80;21577;-60
2022/08/21 05:31:26;;;;;;;21.70;5.20;;;;;;;23.35;99.58;99359.88;1754993;80;21476;-60
2022/08/21 05:33:53;;;;;;;32.35;6.58;;;;;;;23.39;98.97;99356.38;1755109;80;21807;-61
2022/08/21 05:36:20;;;;;;;27.40;5.37;;;;;;;23.46;98.65;99361.48;1750175;80;21034;-61
2022/08/21 05:38:47;;;;;;;32.90;5.85;;;;;;;23.53;97.61;99358.52;1748822;80;21487;-61
2022/08/21 05:41:13;;;;;;;33.10;5.90;;;;;;;23.60;96.94;99356.04;1753526;80;21444;-59
2022/08/21 05:43:40;;;;;;;31.27;4.93;;;;;;;23.69;96.10;99354.59;1753538;80;21475;-59
2022/08/21 05:46:07;;;;;;;33.45;5.90;;;;;;;23.81;94.50;99359.73;1752830;80;21743;-59
2022/08/21 05:48:36;;;;;;;23.05;5.22;;;;;;;23.85;93.80;99355.77;1748924;80;21522;-59
2022/08/21 05:51:12;;;;;;;26.93;5.25;;;;;;;23.87;92.63;99353.25;1746979;80;21567;-59
2022/08/21 05:53:39;;;;;;;26.52;5.87;;;;;;;23.93;91.80;99353.11;1741247;80;21494;-59
2022/08/21 05:56:06;;;;;;;29.52;4.80;;;;;;;23.98;92.12;99358.86;1743691;80;21035;-59
2022/08/21 05:58:34;;;;;;;25.92;5.22;;;;;;;24.06;92.22;99361.58;1750921;80;25841;-62
2022/08/21 06:01:02;;;;;;;23.27;4.75;;;;;;;24.14;91.38;99358.09;1755279;80;21566;-59
2022/08/21 06:03:32;;;;;;;27.65;5.58;;;;;;;24.12;90.77;99363.30;1753900;80;21451;-59
2022/08/21 06:05:59;;;;;;;21.50;6.30;;;;;;;24.13;91.44;99363.14;1739364;80;21539;-59
2022/08/21 06:08:26;;;;;;;23.73;5.58;;;;;;;24.19;91.31;99362.50;1750131;80;20994;-59
2022/08/21 06:10:53;;;;;;;26.15;5.25;;;;;;;24.28;90.35;99347.27;1753251;80;21834;-59
2022/08/21 06:13:20;;;;;;;;;;;;;;;24.41;89.54;99353.52;1757028;80;21576;-61
2022/08/21 06:15:47;;;;;;;26.90;5.03;;;;;;;24.49;88.38;99354.40;1753175;80;20180;-60
2022/08/21 06:18:13;;;;;;;21.00;5.03;;;;;;;24.57;88.88;99354.13;1752893;80;21511;-60
2022/08/21 06:20:40;;;;;;;29.70;5.08;;;;;;;24.67;87.85;99350.78;1742204;80;21582;-60
2022/08/21 06:23:07;;;;;;;32.95;5.33;;;;;;;24.74;86.90;99351.81;1760785;80;21848;-60
2022/08/21 06:25:34;;;;;;;28.12;5.62;;;;;;;24.79;86.46;99348.62;1756786;80;21021;-60
2022/08/21 06:28:04;;;;;;;35.00;7.53;;;;;;;24.85;86.11;99349.33;1751694;80;20982;-60
2022/08/21 06:30:31;;;;;;;30.55;5.90;;;;;;;24.89;85.33;99353.37;1752270;80;21555;-59
2022/08/21 06:32:58;;;;;;;21.33;4.90;;;;;;;24.93;85.43;99347.16;1750981;80;21653;-60
2022/08/21 06:35:25;;;;;;;25.40;5.90;;;;;;;24.98;84.40;99342.97;1756062;80;21822;-60
2022/08/21 06:37:51;;;;;;;30.68;5.62;;;;;;;25.00;84.99;99338.26;1746960;80;21580;-60
2022/08/21 06:40:18;;;;;;;25.02;5.17;;;;;;;25.02;84.25;99335.41;1741944;80;21423;-60
2022/08/21 06:42:44;;;;;;;29.18;5.42;;;;;;;25.05;84.23;99339.95;1697535;82;21475;-61
2022/08/21 06:45:11;;;;;;;34.20;6.03;;;;;;;25.01;84.62;99339.09;1748376;80;21585;-60
2022/08/21 06:47:38;;;;;;;27.37;4.92;;;;;;;25.14;84.59;99341.30;1759018;80;21797;-60
2022/08/21 06:50:07;;;;;;;27.32;5.58;;;;;;;25.23;84.52;99341.67;1745786;80;21436;-59
2022/08/21 06:52:35;;;;;;;31.85;5.28;;;;;;;25.33;84.39;99341.50;1748086;80;21522;-61
2022/08/21 06:55:05;;;;;;;25.60;6.37;;;;;;;25.42;83.88;99348.05;1742555;80;21551;-60
2022/08/21 06:57:32;;;;;;;28.17;6.00;;;;;;;25.51;82.96;99344.03;1752274;80;21553;-60
2022/08/21 06:59:59;;;;;;;37.37;6.23;;;;;;;25.56;82.19;99342.52;1743546;80;21757;-59
2022/08/21 07:02:25;;;;;;;30.48;6.08;;;;;;;25.65;81.17;99331.22;1757779;80;21484;-59
2022/08/21 07:04:52;;;;;;;30.60;5.30;;;;;;;25.67;80.83;99337.27;1754382;80;21583;-59
2022/08/21 07:07:19;;;;;;;33.48;6.55;;;;;;;25.69;80.37;99338.45;1753162;80;21534;-59
2022/08/21 07:09:46;;;;;;;30.17;5.42;;;;;;;25.70;80.84;99337.45;1747545;80;26312;-59
2022/08/21 07:12:13;;;;;;;32.33;5.92;;;;;;;25.75;80.39;99339.97;1752740;80;21774;-59
2022/08/21 07:14:39;;;;;;;20.60;4.93;;;;;;;25.81;80.62;99341.14;1684823;83;21610;-60
2022/08/21 07:17:06;;;;;;;37.23;5.53;;;;;;;25.91;80.69;99336.39;1745898;80;21506;-60
2022/08/21 07:19:33;;;;;;;19.53;5.17;;;;;;;26.01;80.08;99334.39;1750220;80;22281;-59
2022/08/21 07:22:01;;;;;;;30.05;5.42;;;;;;;26.10;79.82;99324.41;1753607;80;22291;-59
2022/08/21 07:24:28;;;;;;;33.58;5.92;;;;;;;26.18;80.07;99328.92;1745185;80;22158;-59
2022/08/21 07:26:55;;;;;;;;;;;;;;;26.28;78.99;99330.09;1763905;80;21522;-59
2022/08/21 07:29:22;;;;;;;23.70;5.60;;;;;;;26.27;79.57;99327.05;1759731;80;20518;-59
2022/08/21 07:31:48;;;;;;;32.67;5.45;;;;;;;26.27;79.18;99321.14;1746345;80;21455;-60
2022/08/21 07:34:15;;;;;;;28.67;6.92;;;;;;;26.31;78.36;99319.77;1758734;80;21527;-60
2022/08/21 07:36:42;;;;;;;26.97;5.55;;;;;;;26.34;78.49;99316.74;1758854;80;21887;-60
2022/08/21 07:39:08;;;;;;;27.93;6.10;;;;;;;26.43;78.50;99318.91;1764472;80;21450;-59
2022/08/21 07:41:37;;;;;;;;;;;;;;;26.48;78.59;99315.66;1760197;80;21450;-59
2022/08/21 07:44:04;;;;;;;;;;;;;;;26.53;78.10;99314.63;1756960;80;20431;-60
2022/08/21 07:46:31;;;;;;;;;;;;;;;26.59;78.16;99305.34;1758799;80;20198;-60
2022/08/21 07:48:58;;;;;;;32.67;5.60;;;;;;;26.62;80.38;99301.48;1759876;80;22109;-60
2022/08/21 07:51:27;;;;;;;29.85;6.45;;;;;;;26.69;78.50;99299.75;1757981;80;21584;-59
2022/08/21 07:53:55;;;;;;;31.35;7.70;;;;;;;26.76;77.95;99295.81;1762989;80;21761;-59
2022/08/21 07:56:21;;;;;;;39.27;5.60;;;;;;;26.81;77.68;99297.48;1744232;80;21530;-59
2022/08/21 07:58:48;;;;;;;35.27;5.83;;;;;;;26.93;78.28;99296.55;1751287;80;21522;-59
2022/08/21 08:01:15;;;;;;;23.38;5.28;;;;;;;27.03;78.79;99301.69;1753273;79;21503;-59
2022/08/21 08:03:42;;;;;;;30.15;5.00;;;;;;;27.12;78.20;99298.75;1758805;80;21499;-60
2022/08/21 08:06:12;;;;;;;27.77;5.72;;;;;;;27.25;77.24;99297.31;1758743;80;21510;-59
2022/08/21 08:08:39;;;;;;;29.12;5.97;;;;;;;27.34;76.36;99293.03;1762522;80;21632;-59
2022/08/21 08:11:06;;;;;;;29.77;5.83;;;;;;;27.43;75.54;99289.76;1754963;80;21479;-59
2022/08/21 08:13:46;;;;;;;26.10;5.22;;;;;;;27.56;74.54;99291.84;1755936;80;21831;-60
2022/08/21 08:16:13;;;;;;;33.92;5.97;;;;;;;27.56;73.54;99285.08;1769350;80;21522;-61
2022/08/21 08:18:41;;;;;;;39.33;6.33;;;;;;;27.59;73.75;99286.05;1754417;80;21624;-59
2022/08/21 08:21:09;;;;;;;32.20;6.30;;;;;;;27.59;73.75;99286.05;1765633;80;21585;-58
2022/08/21 08:23:35;;;;;;;34.80;5.62;;;;;;;27.71;74.46;99291.86;1765323;80;21412;-59
2022/08/21 08:26:02;;;;;;;32.17;6.40;;;;;;;27.82;73.75;99304.04;1761801;80;21466;-58
2022/08/21 08:28:31;;;;;;;32.67;6.43;;;;;;;27.86;72.56;99294.53;1753899;80;21652;-58
2022/08/21 08:30:59;;;;;;;36.00;6.08;;;;;;;27.94;71.89;99289.92;1757366;80;21616;-59
2022/08/21 08:33:25;;;;;;;22.95;5.30;;;;;;;28.03;71.64;99285.27;1736269;80;21479;-59
2022/08/21 08:35:52;;;;;;;31.52;5.60;;;;;;;28.12;71.10;99281.94;1747281;80;21526;-59
2022/08/21 08:38:20;;;;;;;29.60;6.45;;;;;;;28.13;71.61;99285.80;1759273;80;21419;-59
2022/08/21 08:41:08;;;;;;;32.15;5.62;;;;;;;28.24;70.44;99278.27;1754169;80;21581;-58
2022/08/21 08:43:34;;;;;;;;;;;;;;;28.31;69.67;99277.31;1746940;80;21403;-59
2022/08/21 08:46:09;;;;;;;42.20;6.22;;;;;;;28.35;68.97;99283.18;1746282;80;20415;-59
2022/08/21 08:48:52;;;;;;;29.55;5.95;;;;;;;28.38;69.00;99281.95;1752137;80;21419;-59
2022/08/21 08:51:37;;;;;;;31.10;5.83;;;;;;;28.39;67.92;99280.91;1755221;80;21395;-58
2022/08/21 08:54:08;;;;;;;28.80;5.83;;;;;;;28.47;67.76;99276.23;1739536;80;20947;-59
2022/08/21 08:56:35;;;;;;;31.80;6.37;;;;;;;28.53;67.63;99278.72;1751658;80;21479;-59
2022/08/21 08:59:10;;;;;;;32.40;5.37;;;;;;;28.57;67.26;99276.48;1752740;80;21510;-61
2022/08/21 09:01:37;;;;;;;23.45;5.90;;;;;;;28.61;67.08;99275.89;1754186;80;21687;-60
2022/08/21 09:04:04;;;;;;;20.73;4.90;;;;;;;28.71;66.69;99267.49;1750730;80;21813;-58
2022/08/21 09:06:54;;;;;;;34.47;5.70;;;;;;;28.81;65.85;99271.23;1756103;80;21569;-58
2022/08/21 09:10:02;;;;;;;21.62;4.87;;;;;;;28.83;65.18;99272.70;1750115;80;21003;-61
2022/08/21 09:12:35;;;;;;;31.62;6.17;;;;;;;28.87;65.00;99269.92;1744739;80;21480;-60
2022/08/21 09:15:25;;;;;;;22.30;5.17;;;;;;;28.98;64.33;99267.75;1752835;80;21554;-62
2022/08/21 09:18:17;;;;;;;22.48;5.00;;;;;;;29.05;63.67;99270.83;1746113;80;21781;-62
2022/08/21 09:21:32;;;;;;;31.97;5.20;;;;;;;29.12;63.56;99262.75;1749464;79;21471;-62
2022/08/21 09:24:37;;;;;;;22.17;5.83;;;;;;;29.25;63.65;99268.83;1745595;80;21530;-62
2022/08/21 09:27:13;;;;;;;29.70;4.75;;;;;;;29.42;61.96;99263.47;1745589;80;21543;-60
2022/08/21 09:29:44;;;;;;;31.05;5.50;;;;;;;29.48;60.79;99259.96;1745388;80;21519;-61
2022/08/21 09:32:18;;;;;;;31.90;5.90;;;;;;;29.56;60.57;99265.74;1761285;80;21502;-62
2022/08/21 09:35:08;;;;;;;25.20;5.12;;;;;;;29.66;60.53;99264.03;1757170;80;21474;-61
2022/08/21 09:37:58;;;;;;;31.00;5.47;;;;;;;29.73;61.15;99260.88;1743502;80;21034;-61
2022/08/21 09:40:37;;;;;;;35.65;5.97;;;;;;;29.81;59.66;99258.53;1740459;80;21687;-60
2022/08/21 09:43:19;;;;;;;29.85;5.92;;;;;;;29.84;59.07;99252.19;1749953;80;21511;-60
2022/08/21 09:45:48;;;;;;;28.77;6.67;;;;;;;29.88;57.83;99253.98;1746891;80;21810;-61
2022/08/21 09:48:20;;;;;;;28.90;5.62;;;;;;;29.84;58.12;99248.13;1756261;80;21507;-61
2022/08/21 09:50:48;;;;;;;33.67;5.80;;;;;;;29.86;57.25;99243.87;1750518;80;21412;-61
2022/08/21 09:53:25;;;;;;;23.98;5.70;;;;;;;29.86;57.37;99239.80;1745530;80;21609;-62
2022/08/21 09:58:44;;;;;;;30.40;6.05;;;;;;;30.04;55.17;99244.66;1751626;80;21843;-60
2022/08/21 10:01:20;;;;;;;27.10;5.78;;;;;;;30.14;53.19;99249.70;1746221;80;21501;-62
2022/08/21 10:03:47;;;;;;;36.50;5.65;;;;;;;30.16;53.29;99249.84;1752768;80;21415;-60
2022/08/21 10:06:24;;;;;;;30.60;4.70;;;;;;;30.28;51.93;99248.20;1746820;80;21521;-61
2022/08/21 10:09:14;;;;;;;33.80;6.17;;;;;;;30.35;53.17;99250.16;1744810;80;21466;-60
2022/08/21 10:11:41;;;;;;;30.15;5.20;;;;;;;30.40;51.21;99247.15;1748361;80;21901;-60
2022/08/21 10:14:22;;;;;;;32.28;5.33;;;;;;;30.52;50.16;99244.67;1752614;80;27265;-62
2022/08/21 10:17:04;;;;;;;33.13;5.90;;;;;;;30.53;50.27;99238.19;1758310;80;21496;-60
2022/08/21 10:19:58;;;;;;;37.80;5.42;;;;;;;30.56;48.83;99233.72;1741145;80;21608;-61
2022/08/21 10:22:48;;;;;;;31.12;5.08;;;;;;;30.58;48.08;99238.95;1755895;80;21471;-62
2022/08/21 10:25:32;;;;;;;34.60;5.25;;;;;;;30.59;47.77;99225.67;1743098;80;21387;-63
2022/08/21 10:28:10;;;;;;;32.60;5.45;;;;;;;30.73;44.82;99232.81;1748290;80;21539;-62
2022/08/21 10:31:01;;;;;;;22.35;4.75;;;;;;;30.73;44.96;99230.63;1752326;80;21593;-63
2022/08/21 10:33:48;;;;;;;28.38;4.97;;;;;;;30.73;44.83;99232.81;1761096;80;21486;-60
2022/08/21 10:36:20;;;;;;;;;;;;;;;30.74;44.09;99239.92;1761745;80;21466;-62
2022/08/21 10:38:59;;;;;;;30.35;4.62;;;;;;;30.74;43.67;99230.42;1757215;80;21843;-60
2022/08/21 10:42:01;;;;;;;31.57;4.75;;;;;;;30.70;43.34;99229.14;1759438;80;22166;-59
2022/08/21 10:44:54;;;;;;;27.20;4.40;;;;;;;30.73;43.44;99227.38;1755634;80;21568;-61
2022/08/21 10:47:46;;;;;;;31.27;4.58;;;;;;;30.79;44.81;99224.36;1759018;80;21470;-60
2022/08/21 10:50:53;;;;;;;26.73;4.70;;;;;;;30.87;44.40;99224.15;1755550;80;21443;-61
2022/08/21 10:53:37;;;;;;;27.87;4.42;;;;;;;30.88;43.61;99227.19;1765558;80;21945;-60
2022/08/21 10:56:21;;;;;;;28.27;4.10;;;;;;;30.92;43.95;99220.33;1756706;80;21585;-60
2022/08/21 10:59:25;;;;;;;31.52;4.37;;;;;;;31.03;43.26;99225.14;1759821;80;21442;-60
2022/08/21 11:02:19;;;;;;;28.55;4.08;;;;;;;31.05;43.10;99224.93;1761964;80;21029;-60
2022/08/21 11:05:02;;;;;;;28.85;5.47;;;;;;;31.13;43.22;99219.28;1761934;80;21568;-60
2022/08/21 11:07:37;;;;;;;24.50;4.25;;;;;;;31.18;43.02;99211.34;1757457;80;22088;-60
2022/08/21 11:10:19;;;;;;;29.05;5.00;;;;;;;31.23;43.27;99220.20;1760928;80;21558;-60
2022/08/21 11:12:54;;;;;;;19.27;4.58;;;;;;;31.29;42.63;99209.03;1703855;83;21459;-60
2022/08/21 11:15:37;;;;;;;29.07;4.35;;;;;;;31.34;43.61;99206.52;1693205;83;21579;-60
2022/08/21 11:18:24;;;;;;;27.55;5.45;;;;;;;31.40;43.38;99207.03;1693384;83;21667;-60
2022/08/21 11:21:28;;;;;;;28.50;4.80;;;;;;;31.54;43.03;99206.53;1708939;82;21859;-61
2022/08/21 11:24:21;;;;;;;34.08;5.80;;;;;;;31.65;42.63;99205.02;1682565;82;21556;-59
2022/08/21 11:27:16;;;;;;;30.37;5.55;;;;;;;31.77;42.40;99196.52;1692570;83;21474;-61
2022/08/21 11:29:46;;;;;;;34.48;4.92;;;;;;;31.84;42.04;99203.31;1656277;82;21456;-59
2022/08/21 11:32:45;;;;;;;21.17;4.15;;;;;;;31.89;41.48;99200.25;1688218;82;21536;-59
2022/08/21 11:35:26;;;;;;;27.48;4.47;;;;;;;31.92;41.41;99203.05;1693554;82;21839;-60
2022/08/21 11:38:27;;;;;;;28.20;4.70;;;;;;;31.95;40.69;99201.28;1698520;82;21028;-60
2022/08/21 11:41:15;;;;;;;35.88;4.45;;;;;;;32.03;40.76;99193.44;1690960;82;21637;-60
2022/08/21 11:43:57;;;;;;;26.45;4.58;;;;;;;32.12;40.53;99202.48;1694591;83;21572;-59
2022/08/21 11:46:32;;;;;;;26.02;4.03;;;;;;;32.13;41.10;99195.97;1692480;82;21524;-60
2022/08/21 11:49:25;;;;;;;25.05;4.72;;;;;;;32.22;40.65;99199.28;1694132;82;21833;-60